Minato Maru No.27 — JD3989 — position and weather

sailwx.info

Track history (hours):
 
Tides and Currents Weather Stations Pressure Air Temp Water Temp Dewpoint Dewpoint Depression Visibility Wind Speed Wind Dir Waves Ship Positions

Minato Maru No.27

Last reported at 2018-Jul-21 08:49 UTC. Time now 2018-Jul-22 14:42 UTC.
Position N 34°39' E 135°26'.

Length 30 m.

Type: Tanker. MMSI: 431007464.

Date/timePositionNaut miles runAvg speedWind from/ knotsBaromVisibWave heightAir tempDewpointWater temp
2018-Jul-21 08:49N 34°39' E 135°26'0 0.0
2018-Jul-21 08:25N 34°39' E 135°26'0 0.0
2018-Jul-20 07:29N 34°39' E 135°26'0 0.0
2018-Jul-19 01:34N 34°39' E 135°26'0 0.0
2018-Jul-19 01:28N 34°39' E 135°26'0 0.0
2018-Jul-19 00:52N 34°39' E 135°26'0 0.0
2018-Jul-19 00:16N 34°39' E 135°26'0 0.0
2018-Jul-18 23:58N 34°39' E 135°26'0 0.0
2018-Jul-17 02:45N 34°39' E 135°26'  
2018-Jul-14 01:56N 34°39' E 135°26'0 0.0
2018-Jul-13 01:18N 34°39' E 135°26'2 2.2
2018-Jul-13 00:35N 34°38' E 135°27'2 5.9
2018-Jul-13 00:18N 34°39' E 135°25'3 2.4
2018-Jul-12 23:07N 34°39' E 135°22'1 1.6
2018-Jul-12 22:23N 34°39' E 135°20'1 1.3
2018-Jul-12 21:59N 34°39' E 135°21'3 0.2
2018-Jul-12 04:16N 34°39' E 135°25'7 2.6
2018-Jul-12 01:42N 34°32' E 135°24'410.6
2018-Jul-12 01:22N 34°36' E 135°24'2 4.4
2018-Jul-12 00:58N 34°37' E 135°26'2 3.7
2018-Jul-12 00:23N 34°39' E 135°25'  
Track history (hours):
 
Tides and Currents Weather Stations Pressure Air Temp Water Temp Dewpoint Dewpoint Depression Visibility Wind Speed Wind Dir Waves Ship Positions

Minato Maru No.27

Last reported at 2018-Jul-21 08:49 UTC. Time now 2018-Jul-22 14:42 UTC.
Position N 34°39' E 135°26'.

Length 30 m.

Type: Tanker. MMSI: 431007464.

Date/timePositionNaut miles runAvg speedWind from/ knotsBaromVisibWave heightAir tempDewpointWater temp
2018-Jul-21 08:49N 34°39' E 135°26'0 0.0
2018-Jul-21 08:25N 34°39' E 135°26'0 0.0
2018-Jul-20 07:29N 34°39' E 135°26'0 0.0
2018-Jul-19 01:34N 34°39' E 135°26'0 0.0
2018-Jul-19 01:28N 34°39' E 135°26'0 0.0
2018-Jul-19 00:52N 34°39' E 135°26'0 0.0
2018-Jul-19 00:16N 34°39' E 135°26'0 0.0
2018-Jul-18 23:58N 34°39' E 135°26'0 0.0
2018-Jul-17 02:45N 34°39' E 135°26'  
2018-Jul-14 01:56N 34°39' E 135°26'0 0.0
2018-Jul-13 01:18N 34°39' E 135°26'2 2.2
2018-Jul-13 00:35N 34°38' E 135°27'2 5.9
2018-Jul-13 00:18N 34°39' E 135°25'3 2.4
2018-Jul-12 23:07N 34°39' E 135°22'1 1.6
2018-Jul-12 22:23N 34°39' E 135°20'1 1.3
2018-Jul-12 21:59N 34°39' E 135°21'3 0.2
2018-Jul-12 04:16N 34°39' E 135°25'7 2.6
2018-Jul-12 01:42N 34°32' E 135°24'410.6
2018-Jul-12 01:22N 34°36' E 135°24'2 4.4
2018-Jul-12 00:58N 34°37' E 135°26'2 3.7
2018-Jul-12 00:23N 34°39' E 135°25'  

Dump ship's entire track history